Time;durP1;ratioP1;P1;durP2;ratioP2;P2;SDS_P1;SDS_P2;PMS_P1;PMS_P2;Temp;Humidity;BMP_temperature;BMP_pressure;BME280_temperature;BME280_humidity;BME280_pressure;Samples;Min_cycle;Max_cycle;Signal;HPM_P1;HPM_P2
2023/06/07 00:02:02;;;;;;;17.20;15.63;;;;;;;15.41;78.99;101185.13;5013584;28;20208;-69
2023/06/07 00:04:30;;;;;;;15.83;14.30;;;;;;;15.39;79.17;101187.34;5012809;28;20201;-69
2023/06/07 00:07:00;;;;;;;16.40;14.73;;;;;;;15.38;79.03;101193.78;5013877;28;20644;-69
2023/06/07 00:09:27;;;;;;;15.83;14.33;;;;;;;15.36;79.55;101185.38;5013116;28;20233;-69
2023/06/07 00:11:53;;;;;;;17.90;16.20;;;;;;;15.35;79.66;101183.03;5011862;28;20201;-69
2023/06/07 00:14:20;;;;;;;16.97;15.37;;;;;;;15.33;79.69;101188.72;5013534;28;20239;-69
2023/06/07 00:16:47;;;;;;;17.60;15.83;;;;;;;15.31;79.53;101192.81;5012927;28;20208;-69
2023/06/07 00:19:15;;;;;;;16.57;15.03;;;;;;;15.29;79.83;101190.50;5013365;28;20219;-69
2023/06/07 00:21:42;;;;;;;18.77;16.90;;;;;;;15.28;79.91;101178.31;5013736;28;20224;-69
2023/06/07 00:24:09;;;;;;;15.90;14.43;;;;;;;15.26;79.71;101187.75;5024013;28;20609;-69
2023/06/07 00:26:35;;;;;;;17.10;15.20;;;;;;;15.25;79.60;101192.28;5025756;28;20682;-69
2023/06/07 00:29:01;;;;;;;19.90;17.83;;;;;;;15.25;79.43;101188.84;5021933;28;20205;-69
2023/06/07 00:31:27;;;;;;;16.17;14.67;;;;;;;15.23;79.57;101189.19;5020107;28;20215;-70
2023/06/07 00:33:54;;;;;;;19.80;17.97;;;;;;;15.21;79.67;101185.34;5025621;28;20220;-69
2023/06/07 00:36:21;;;;;;;18.37;16.67;;;;;;;15.21;79.59;101188.00;5019503;28;20215;-69
2023/06/07 00:38:50;;;;;;;19.00;17.20;;;;;;;15.20;79.94;101194.41;5020627;28;20296;-69
2023/06/07 00:41:17;;;;;;;17.83;16.23;;;;;;;15.19;80.30;101193.66;5025465;28;20220;-69
2023/06/07 00:43:44;;;;;;;20.67;18.80;;;;;;;15.20;79.97;101183.75;5024762;28;20224;-69
2023/06/07 00:46:13;;;;;;;18.27;16.47;;;;;;;15.21;79.88;101180.75;5028838;28;20247;-69
2023/06/07 00:48:40;;;;;;;19.97;18.07;;;;;;;15.22;80.29;101187.63;5022672;28;20200;-69
2023/06/07 00:51:07;;;;;;;19.60;17.80;;;;;;;15.23;80.85;101185.75;5024247;28;20219;-69
2023/06/07 00:53:36;;;;;;;17.80;16.30;;;;;;;15.25;80.65;101186.97;5026224;28;20649;-69
2023/06/07 00:56:05;;;;;;;18.87;17.17;;;;;;;15.26;80.82;101193.06;5024116;28;20214;-69
2023/06/07 00:58:31;;;;;;;20.87;18.77;;;;;;;15.27;80.59;101182.06;5037057;28;20279;-69
2023/06/07 01:00:58;;;;;;;18.37;16.67;;;;;;;15.28;80.49;101182.84;5021100;28;20212;-69
2023/06/07 01:03:24;;;;;;;17.27;15.83;;;;;;;15.28;80.36;101183.63;5036180;28;20332;-69
2023/06/07 01:05:51;;;;;;;18.60;16.80;;;;;;;15.28;80.62;101183.63;5025190;28;20219;-69
2023/06/07 01:08:18;;;;;;;18.53;16.83;;;;;;;15.27;80.34;101186.63;5023824;28;20304;-69
2023/06/07 01:10:46;;;;;;;17.03;15.33;;;;;;;15.25;79.99;101189.63;5026403;28;20208;-69
2023/06/07 01:13:15;;;;;;;18.10;16.50;;;;;;;15.23;80.00;101186.53;5015515;28;20227;-69
2023/06/07 01:15:42;;;;;;;18.03;16.33;;;;;;;15.19;80.03;101187.53;5023062;28;20209;-69
2023/06/07 01:18:10;;;;;;;16.03;14.53;;;;;;;15.15;79.88;101179.47;5019798;28;20281;-69
2023/06/07 01:20:38;;;;;;;16.37;14.87;;;;;;;15.11;79.60;101180.50;5025329;28;20213;-69
2023/06/07 01:23:09;;;;;;;18.40;16.50;;;;;;;15.06;79.47;101184.16;5021202;28;20227;-69
2023/06/07 01:25:36;;;;;;;18.93;16.57;;;;;;;15.01;79.50;101186.31;5022126;28;20291;-69
2023/06/07 01:28:05;;;;;;;19.37;17.57;;;;;;;14.97;79.48;101177.47;5025005;28;20204;-69
2023/06/07 01:30:34;;;;;;;18.90;17.17;;;;;;;14.92;79.31;101181.16;5021594;28;20679;-69
2023/06/07 01:33:03;;;;;;;16.83;15.33;;;;;;;14.88;79.02;101177.63;5021001;28;20235;-69
2023/06/07 01:35:31;;;;;;;19.97;18.23;;;;;;;14.84;79.09;101176.75;5021932;28;20216;-69
2023/06/07 01:37:59;;;;;;;18.40;16.70;;;;;;;14.80;79.45;101175.88;5025523;28;20211;-69
2023/06/07 01:40:27;;;;;;;21.47;19.47;;;;;;;14.77;79.27;101171.25;5019683;28;20224;-69
2023/06/07 01:42:56;;;;;;;19.87;17.97;;;;;;;14.73;79.65;101170.38;5021311;28;20246;-69
2023/06/07 01:45:23;;;;;;;21.77;19.73;;;;;;;14.72;79.53;101174.16;5020076;28;20218;-69
2023/06/07 01:47:50;;;;;;;22.57;20.47;;;;;;;14.71;80.09;101171.81;5023142;28;20192;-69
2023/06/07 01:50:21;;;;;;;20.40;18.60;;;;;;;14.69;80.13;101166.06;5023642;28;20202;-69
2023/06/07 01:52:47;;;;;;;22.10;20.00;;;;;;;14.68;80.16;101167.94;5025711;28;20217;-69
2023/06/07 01:55:14;;;;;;;23.40;21.07;;;;;;;14.68;80.19;101161.84;5019907;28;20664;-69
2023/06/07 01:57:51;;;;;;;19.50;17.57;;;;;;;14.66;79.70;101158.75;5019733;28;20254;-69
2023/06/07 02:00:27;;;;;;;19.17;17.40;;;;;;;14.65;80.23;101157.22;5020052;28;20200;-69
2023/06/07 02:02:56;;;;;;;20.53;18.53;;;;;;;14.64;79.96;101161.00;5025581;28;20328;-69
2023/06/07 02:05:29;;;;;;;23.20;21.10;;;;;;;14.62;80.24;101166.66;5023490;28;20203;-69
2023/06/07 02:08:00;;;;;;;22.67;20.57;;;;;;;14.59;80.02;101156.69;5024337;28;20232;-69
2023/06/07 02:10:29;;;;;;;21.37;19.30;;;;;;;14.59;80.26;101150.59;5020324;28;20199;-69
2023/06/07 02:12:57;;;;;;;22.60;20.47;;;;;;;14.56;80.36;101149.41;5019855;28;20257;-69
2023/06/07 02:15:26;;;;;;;21.60;19.60;;;;;;;14.53;80.26;101147.41;5022905;28;20212;-69
2023/06/07 02:17:57;;;;;;;22.03;19.83;;;;;;;14.52;79.89;101148.53;5019404;28;20200;-69
2023/06/07 02:20:25;;;;;;;21.90;19.83;;;;;;;14.50;80.00;101149.97;5021130;28;20218;-69
2023/06/07 02:22:51;;;;;;;20.90;18.77;;;;;;;14.48;79.96;101144.19;5022030;28;20233;-69
2023/06/07 02:25:18;;;;;;;21.30;18.60;;;;;;;14.45;80.00;101151.00;5024191;28;20211;-69
2023/06/07 02:27:44;;;;;;;21.37;19.37;;;;;;;14.42;79.92;101153.53;5020814;28;20208;-69
2023/06/07 02:30:11;;;;;;;22.63;20.43;;;;;;;14.39;80.10;101147.00;5022406;28;20291;-69
2023/06/07 02:32:39;;;;;;;21.30;19.10;;;;;;;14.37;80.13;101145.78;5036431;28;20286;-69
2023/06/07 02:35:07;;;;;;;19.17;17.47;;;;;;;14.34;80.06;101146.47;5020800;28;20211;-69
2023/06/07 02:37:34;;;;;;;21.17;19.27;;;;;;;14.31;80.12;101141.81;5021566;28;20218;-69
2023/06/07 02:40:02;;;;;;;21.47;19.53;;;;;;;14.27;80.08;101148.91;5025181;28;20259;-69
2023/06/07 02:42:30;;;;;;;22.77;20.57;;;;;;;14.25;80.21;101153.78;5021197;28;20289;-69
2023/06/07 02:44:56;;;;;;;19.10;17.27;;;;;;;14.23;80.04;101153.38;5015391;28;20200;-69
2023/06/07 02:47:23;;;;;;;21.23;19.33;;;;;;;14.21;80.20;101158.22;5020275;28;20222;-69
2023/06/07 02:49:52;;;;;;;20.43;18.43;;;;;;;14.19;80.06;101152.44;5019470;28;20228;-69
2023/06/07 02:52:18;;;;;;;21.60;19.60;;;;;;;14.17;80.56;101155.44;5019538;28;20232;-69
2023/06/07 02:54:44;;;;;;;22.33;20.23;;;;;;;14.14;80.58;101150.81;5023845;28;20223;-69
2023/06/07 02:57:11;;;;;;;19.57;17.77;;;;;;;14.11;80.55;101154.13;5018635;28;20294;-69
2023/06/07 02:59:39;;;;;;;21.53;19.53;;;;;;;14.10;80.23;101157.88;5025525;28;20262;-69
2023/06/07 03:02:06;;;;;;;18.97;17.17;;;;;;;14.08;80.39;101157.44;5020661;28;20281;-69
2023/06/07 03:04:33;;;;;;;19.30;17.47;;;;;;;14.06;80.20;101166.84;5014850;28;20199;-69
2023/06/07 03:07:03;;;;;;;19.63;17.83;;;;;;;14.03;79.93;101157.66;5020879;28;20210;-69
2023/06/07 03:09:37;;;;;;;21.70;19.70;;;;;;;14.01;80.58;101157.22;5015841;28;20306;-69
2023/06/07 03:12:05;;;;;;;21.17;19.17;;;;;;;14.00;80.42;101157.56;5018221;28;20690;-69
2023/06/07 03:14:38;;;;;;;19.70;17.90;;;;;;;13.99;80.56;101162.13;5016928;28;20282;-69
2023/06/07 03:17:08;;;;;;;23.17;20.87;;;;;;;13.98;80.67;101165.09;5017782;28;20210;-69
2023/06/07 03:19:35;;;;;;;19.50;17.70;;;;;;;13.97;80.96;101164.31;5018271;28;20305;-69
2023/06/07 03:22:06;;;;;;;21.03;19.03;;;;;;;13.98;81.43;101162.44;5019451;28;20226;-69
2023/06/07 03:24:33;;;;;;;22.43;20.33;;;;;;;13.97;81.21;101163.56;5012729;28;20207;-69
2023/06/07 03:27:00;;;;;;;22.23;20.17;;;;;;;13.98;81.36;101171.16;5018478;28;20213;-69
2023/06/07 03:29:27;;;;;;;23.40;21.30;;;;;;;13.97;81.02;101158.25;5017704;28;20201;-69
2023/06/07 03:31:54;;;;;;;23.57;21.27;;;;;;;13.99;81.22;101161.31;5011394;28;20739;-69
2023/06/07 03:34:20;;;;;;;23.93;21.63;;;;;;;14.01;81.62;101159.09;5018267;28;20257;-69
2023/06/07 03:36:47;;;;;;;23.27;21.17;;;;;;;14.06;81.57;101169.50;5011312;28;20204;-69
2023/06/07 03:39:18;;;;;;;22.73;20.53;;;;;;;14.09;81.47;101166.19;5013569;28;20224;-69
2023/06/07 03:41:45;;;;;;;23.90;21.70;;;;;;;14.14;81.61;101164.09;5015088;28;20196;-69
2023/06/07 03:44:16;;;;;;;24.87;22.47;;;;;;;14.18;81.73;101167.59;5014663;28;20238;-69
2023/06/07 03:46:42;;;;;;;21.90;19.90;;;;;;;14.23;82.20;101164.75;5016015;28;20692;-69
2023/06/07 03:49:09;;;;;;;23.03;20.83;;;;;;;14.30;81.76;101164.19;5013165;28;20208;-69
2023/06/07 03:51:38;;;;;;;22.83;20.73;;;;;;;14.35;81.95;101164.75;5010953;28;20283;-68
2023/06/07 03:54:05;;;;;;;23.93;21.53;;;;;;;14.43;82.24;101163.06;5011304;28;20262;-68
2023/06/07 03:56:33;;;;;;;21.97;19.97;;;;;;;14.50;82.08;101168.56;5010313;28;20220;-70
2023/06/07 03:59:01;;;;;;;22.50;20.20;;;;;;;14.56;82.31;101168.00;5010310;28;20211;-70
2023/06/07 04:01:29;;;;;;;19.17;17.47;;;;;;;14.67;82.05;101163.75;5011472;28;20680;-70
2023/06/07 04:03:58;;;;;;;19.80;17.73;;;;;;;14.76;81.59;101163.59;5010290;28;20221;-70
2023/06/07 04:06:24;;;;;;;19.13;17.23;;;;;;;14.85;81.03;101172.22;5021463;28;20204;-70
2023/06/07 04:08:52;;;;;;;15.03;13.73;;;;;;;14.94;80.56;101170.94;5010183;28;20206;-70
2023/06/07 04:11:19;;;;;;;13.87;12.50;;;;;;;15.02;80.04;101169.25;5008607;28;20219;-70
2023/06/07 04:13:47;;;;;;;14.07;12.77;;;;;;;15.10;79.16;101161.09;5026230;28;20221;-70
2023/06/07 04:16:13;;;;;;;12.53;10.43;;;;;;;15.18;78.62;101164.72;5009246;28;20279;-70
2023/06/07 04:18:43;;;;;;;10.90;9.93;;;;;;;15.25;78.04;101164.88;5010928;28;20212;-70
2023/06/07 04:21:10;;;;;;;10.63;9.63;;;;;;;15.33;77.45;101169.31;5008574;28;20602;-71
2023/06/07 04:23:38;;;;;;;10.30;9.30;;;;;;;15.38;76.63;101156.50;5009078;28;20224;-70
2023/06/07 04:26:08;;;;;;;10.63;9.63;;;;;;;15.43;77.16;101168.81;5007934;28;20210;-70
2023/06/07 04:28:34;;;;;;;10.77;9.77;;;;;;;15.49;77.45;101168.22;5006673;28;20207;-70
2023/06/07 04:31:08;;;;;;;10.57;9.57;;;;;;;15.52;75.49;101159.53;5010675;28;20193;-71
2023/06/07 04:33:36;;;;;;;11.97;9.37;;;;;;;15.57;74.95;101164.59;5008880;28;20221;-70
2023/06/07 04:36:02;;;;;;;10.17;9.23;;;;;;;15.63;74.83;101165.13;5011465;28;20220;-70
2023/06/07 04:38:29;;;;;;;10.50;9.53;;;;;;;15.67;74.91;101156.09;5011846;28;20206;-71
2023/06/07 04:41:06;;;;;;;10.23;9.33;;;;;;;15.73;75.02;101164.59;5014054;28;20212;-71
2023/06/07 04:43:37;;;;;;;9.33;8.43;;;;;;;15.78;74.94;101167.75;5013734;28;20703;-71
2023/06/07 04:46:09;;;;;;;9.10;8.20;;;;;;;15.82;73.90;101170.50;5012263;28;20201;-70
2023/06/07 04:48:40;;;;;;;9.17;8.37;;;;;;;15.86;74.13;101174.03;5012122;28;20734;-71
2023/06/07 04:51:08;;;;;;;8.90;8.07;;;;;;;15.88;73.86;101171.81;5010975;28;20205;-70
2023/06/07 04:53:42;;;;;;;9.30;8.37;;;;;;;15.90;73.50;101173.00;5010550;28;20232;-70
2023/06/07 04:56:11;;;;;;;9.10;8.30;;;;;;;15.92;74.23;101170.75;5010760;28;20221;-70
2023/06/07 04:58:40;;;;;;;9.40;8.40;;;;;;;15.95;74.32;101167.41;5010723;28;20661;-71
2023/06/07 05:01:09;;;;;;;9.03;8.13;;;;;;;16.02;74.42;101174.75;5025810;28;20215;-70
2023/06/07 05:03:39;;;;;;;7.47;6.87;;;;;;;16.09;74.04;101169.63;5011106;28;20258;-70
2023/06/07 05:06:06;;;;;;;7.00;6.30;;;;;;;16.17;73.45;101176.63;5009048;28;20603;-71
2023/06/07 05:08:32;;;;;;;8.37;7.20;;;;;;;16.24;71.82;101177.56;5012654;28;20207;-71
2023/06/07 05:10:59;;;;;;;7.37;6.47;;;;;;;16.32;71.88;101168.59;5011919;28;20433;-71
2023/06/07 05:13:27;;;;;;;7.03;6.33;;;;;;;16.38;71.56;101175.19;5012613;28;20325;-71
2023/06/07 05:15:56;;;;;;;6.50;5.90;;;;;;;16.46;72.07;101173.47;5011053;28;20596;-71
2023/06/07 05:18:27;;;;;;;7.20;6.60;;;;;;;16.53;70.66;101174.41;5011411;28;21032;-70
2023/06/07 05:20:54;;;;;;;7.43;6.40;;;;;;;16.59;73.68;101183.66;5026954;28;20209;-70
2023/06/07 05:23:21;;;;;;;7.00;6.33;;;;;;;16.65;70.88;101181.47;5026341;28;20233;-70
2023/06/07 05:25:51;;;;;;;9.70;6.20;;;;;;;16.70;68.54;101189.97;5013678;28;20840;-70
2023/06/07 05:28:18;;;;;;;6.50;5.90;;;;;;;16.77;67.96;101184.00;5008614;28;20462;-70
2023/06/07 05:30:49;;;;;;;7.33;5.97;;;;;;;16.83;71.43;101187.94;5011464;28;20717;-70
2023/06/07 05:33:17;;;;;;;7.13;6.43;;;;;;;16.88;68.24;101187.66;5010797;28;20239;-71
2023/06/07 05:35:46;;;;;;;8.73;6.80;;;;;;;16.94;67.85;101192.34;5012407;28;20220;-71
2023/06/07 05:38:14;;;;;;;11.27;5.80;;;;;;;17.03;68.00;101187.53;5028263;28;20311;-70
2023/06/07 05:40:41;;;;;;;7.57;5.77;;;;;;;17.11;67.97;101183.09;5012679;28;20213;-70
2023/06/07 05:43:07;;;;;;;6.50;5.80;;;;;;;17.19;67.08;101188.22;5011548;28;20230;-70
2023/06/07 05:45:35;;;;;;;7.33;5.50;;;;;;;17.28;72.12;101188.75;5011462;28;20504;-70
2023/06/07 05:48:01;;;;;;;6.77;5.60;;;;;;;17.34;73.51;101189.25;5008751;28;20291;-71
2023/06/07 05:50:30;;;;;;;5.93;5.27;;;;;;;17.39;67.80;101194.34;5011150;28;20718;-71
2023/06/07 05:52:59;;;;;;;5.70;5.17;;;;;;;17.44;64.36;101183.34;5014046;28;20232;-70
2023/06/07 05:55:26;;;;;;;6.97;4.87;;;;;;;17.52;66.82;101195.69;5011473;28;20244;-70
2023/06/07 05:57:52;;;;;;;5.17;4.67;;;;;;;17.56;61.72;101188.50;5011507;28;20192;-70
2023/06/07 06:00:20;;;;;;;5.43;4.70;;;;;;;17.63;63.47;101192.06;5011659;28;20197;-70
2023/06/07 06:02:48;;;;;;;5.23;4.73;;;;;;;17.69;65.36;101192.53;5010062;28;20231;-70
2023/06/07 06:05:15;;;;;;;5.37;4.80;;;;;;;17.76;67.31;101200.66;5010852;28;20232;-71
2023/06/07 06:07:44;;;;;;;6.20;4.80;;;;;;;17.82;66.56;101194.66;5010748;28;20522;-70
2023/06/07 06:10:12;;;;;;;7.97;5.23;;;;;;;17.90;67.36;101188.28;5010349;28;20238;-70
2023/06/07 06:12:38;;;;;;;5.63;4.83;;;;;;;17.96;66.58;101196.78;5011651;28;20240;-70
2023/06/07 06:15:06;;;;;;;7.37;4.70;;;;;;;18.04;63.32;101193.84;5008464;28;20218;-71
2023/06/07 06:17:32;;;;;;;7.57;5.10;;;;;;;18.10;60.84;101196.97;5010237;28;20192;-70
2023/06/07 06:19:59;;;;;;;5.90;4.73;;;;;;;18.17;63.17;101205.84;5010741;28;20303;-70
2023/06/07 06:22:28;;;;;;;9.57;4.40;;;;;;;18.29;63.25;101211.00;5011588;28;20777;-70
2023/06/07 06:24:55;;;;;;;6.73;4.70;;;;;;;18.32;61.67;101212.97;5009185;28;21112;-70
2023/06/07 06:27:22;;;;;;;8.10;4.33;;;;;;;18.41;62.67;101216.16;5009480;28;20205;-71
2023/06/07 06:29:49;;;;;;;5.00;4.27;;;;;;;18.49;63.94;101215.13;5010347;28;20212;-71
2023/06/07 06:32:15;;;;;;;5.20;4.33;;;;;;;18.57;63.03;101227.44;5008868;28;20231;-70
2023/06/07 06:34:41;;;;;;;8.10;4.70;;;;;;;18.65;61.58;101218.38;5010246;28;20203;-71
2023/06/07 06:37:09;;;;;;;5.80;4.87;;;;;;;18.75;59.45;101231.13;5010970;28;20227;-71
2023/06/07 06:39:36;;;;;;;6.30;4.40;;;;;;;18.84;66.13;101228.91;5010077;28;20214;-70
2023/06/07 06:42:03;;;;;;;5.37;4.47;;;;;;;18.94;63.79;101222.16;5008224;28;20259;-71
2023/06/07 06:44:57;;;;;;;6.27;4.40;;;;;;;19.05;66.03;101226.47;4987754;28;20223;-70
2023/06/07 06:47:24;;;;;;;7.57;4.93;;;;;;;19.14;61.85;101224.28;5009533;28;20554;-70
2023/06/07 06:49:54;;;;;;;6.57;4.47;;;;;;;19.26;62.28;101220.63;5010335;28;21165;-70
2023/06/07 06:52:20;;;;;;;5.93;5.00;;;;;;;19.38;63.97;101223.81;5008474;28;20231;-70
2023/06/07 06:54:46;;;;;;;6.97;4.80;;;;;;;19.49;61.05;101215.84;5007654;28;20226;-70
2023/06/07 06:57:13;;;;;;;5.90;4.33;;;;;;;19.60;59.82;101212.13;5009134;28;20216;-71
2023/06/07 06:59:39;;;;;;;6.00;4.33;;;;;;;19.70;63.02;101224.06;5007985;28;20216;-70
2023/06/07 07:02:07;;;;;;;7.03;4.83;;;;;;;19.80;55.50;101218.81;5006871;28;20201;-70
2023/06/07 07:04:34;;;;;;;8.53;4.53;;;;;;;19.92;59.47;101223.09;5006311;28;20205;-70
2023/06/07 07:07:01;;;;;;;5.80;4.50;;;;;;;20.03;61.32;101232.00;5007387;28;20204;-70
2023/06/07 07:09:27;;;;;;;6.63;4.47;;;;;;;20.13;64.16;101224.03;5007635;28;20559;-70
2023/06/07 07:11:54;;;;;;;5.60;4.67;;;;;;;20.21;57.17;101224.84;5007558;28;20209;-70
2023/06/07 07:14:20;;;;;;;5.10;4.20;;;;;;;20.28;53.99;101216.88;5006382;28;20218;-70
2023/06/07 07:16:46;;;;;;;4.10;3.70;;;;;;;20.38;58.48;101222.28;5007614;28;20213;-71
2023/06/07 07:19:14;;;;;;;5.87;4.20;;;;;;;20.48;59.30;101223.50;5007328;28;20202;-71
2023/06/07 07:21:43;;;;;;;8.27;4.37;;;;;;;20.58;61.04;101222.75;5006567;28;20216;-70
2023/06/07 07:24:09;;;;;;;5.63;4.00;;;;;;;20.64;54.69;101224.69;5004137;28;20239;-70
2023/06/07 07:26:39;;;;;;;6.07;4.33;;;;;;;20.74;57.17;101220.53;5006667;28;20211;-70
2023/06/07 07:29:06;;;;;;;6.67;4.37;;;;;;;20.81;58.76;101223.22;5004816;28;21516;-70
2023/06/07 07:31:33;;;;;;;4.80;4.17;;;;;;;20.86;54.72;101217.50;5006063;28;20209;-70
2023/06/07 07:34:00;;;;;;;6.47;4.30;;;;;;;20.97;57.13;101226.38;5005922;28;20278;-70
2023/06/07 07:36:28;;;;;;;4.90;4.40;;;;;;;21.05;57.58;101223.34;5006207;28;20216;-70
2023/06/07 07:38:54;;;;;;;5.37;4.27;;;;;;;21.15;58.40;101224.50;5004191;28;20626;-71
2023/06/07 07:41:23;;;;;;;8.37;4.30;;;;;;;21.24;54.84;101224.91;5004302;28;20208;-71
2023/06/07 07:43:51;;;;;;;4.83;4.13;;;;;;;21.34;54.50;101233.00;5004726;28;20225;-71
2023/06/07 07:46:17;;;;;;;5.03;4.47;;;;;;;21.44;53.97;101234.16;5004383;28;20228;-71
2023/06/07 07:48:44;;;;;;;4.47;4.07;;;;;;;21.50;51.25;101228.03;5005043;28;20213;-71
2023/06/07 07:51:11;;;;;;;7.07;4.77;;;;;;;21.58;59.45;101232.22;5004012;28;20218;-71
2023/06/07 07:53:42;;;;;;;5.77;3.90;;;;;;;21.65;56.22;101234.16;5004954;28;20224;-71
2023/06/07 07:56:08;;;;;;;8.40;4.50;;;;;;;21.71;57.62;101235.34;5004306;28;20223;-70
2023/06/07 07:58:35;;;;;;;6.97;4.53;;;;;;;21.77;51.32;101225.72;5004321;28;20202;-71
2023/06/07 08:01:02;;;;;;;4.60;4.20;;;;;;;21.86;54.19;101224.22;5005698;28;20622;-70
2023/06/07 08:03:29;;;;;;;8.33;4.27;;;;;;;21.94;53.02;101224.97;5002097;28;20232;-70
2023/06/07 08:05:56;;;;;;;8.13;4.13;;;;;;;22.04;54.95;101216.88;5003747;28;20833;-71
2023/06/07 08:08:23;;;;;;;6.23;3.83;;;;;;;22.11;57.73;101227.63;5005487;28;20208;-71
2023/06/07 08:10:50;;;;;;;6.10;4.30;;;;;;;22.15;53.04;101212.25;5004824;28;20230;-70
2023/06/07 08:13:17;;;;;;;11.80;4.37;;;;;;;22.24;50.23;101222.63;5007000;28;20228;-70
2023/06/07 08:15:46;;;;;;;5.20;4.00;;;;;;;22.35;54.67;101226.81;5004880;28;20216;-70
2023/06/07 08:18:12;;;;;;;5.53;4.27;;;;;;;22.43;56.83;101231.00;5007444;28;20718;-70
2023/06/07 08:20:41;;;;;;;8.93;4.20;;;;;;;22.51;53.65;101234.47;5007651;28;20223;-70
2023/06/07 08:23:16;;;;;;;5.47;4.23;;;;;;;22.59;58.32;101227.91;5007979;28;20221;-70
2023/06/07 08:25:45;;;;;;;4.63;4.17;;;;;;;22.64;50.77;101227.50;5006117;28;20203;-70
2023/06/07 08:28:13;;;;;;;10.83;4.60;;;;;;;22.74;51.66;101226.69;5007662;28;20577;-71
2023/06/07 08:30:41;;;;;;;7.23;3.93;;;;;;;22.82;47.03;101225.50;5005342;28;20208;-70
2023/06/07 08:33:08;;;;;;;5.60;4.30;;;;;;;22.84;49.69;101226.66;5004900;28;20749;-70
2023/06/07 08:35:34;;;;;;;8.07;4.15;;;;;;;22.89;54.81;101217.38;5006867;28;20636;-71
2023/06/07 08:38:03;;;;;;;4.03;3.63;;;;;;;22.96;52.08;101220.03;5005852;28;20212;-70
2023/06/07 08:40:32;;;;;;;4.15;3.55;;;;;;;23.06;50.63;101227.28;5005827;28;20664;-70
2023/06/07 08:42:59;;;;;;;8.02;4.20;;;;;;;23.13;50.93;101213.78;5005877;28;20248;-70
2023/06/07 08:45:27;;;;;;;6.82;3.80;;;;;;;23.22;51.04;101216.81;5006044;28;20201;-71
2023/06/07 08:47:57;;;;;;;4.85;4.13;;;;;;;23.32;55.42;101213.28;5005303;28;20625;-71
2023/06/07 08:50:26;;;;;;;6.60;4.20;;;;;;;23.42;47.76;101217.84;5004378;28;20212;-70
2023/06/07 08:52:55;;;;;;;7.15;4.03;;;;;;;23.53;44.83;101211.22;5003190;28;20302;-71
2023/06/07 08:55:25;;;;;;;4.32;3.67;;;;;;;23.65;45.61;101218.06;5004310;28;20671;-72
2023/06/07 08:57:52;;;;;;;6.07;3.60;;;;;;;23.77;44.52;101223.75;5004035;28;20586;-70
2023/06/07 09:00:22;;;;;;;6.90;3.70;;;;;;;23.88;53.42;101226.31;5003761;28;20204;-71
2023/06/07 09:02:53;;;;;;;4.50;3.60;;;;;;;24.01;46.42;101222.00;5003812;28;20794;-71
2023/06/07 09:05:19;;;;;;;8.40;4.50;;;;;;;24.12;46.70;101211.88;5003817;28;20228;-71
2023/06/07 09:07:46;;;;;;;5.47;3.78;;;;;;;24.25;51.34;101217.53;5002108;28;20196;-72
2023/06/07 09:10:13;;;;;;;4.32;3.53;;;;;;;24.37;50.43;101219.69;5001999;28;20205;-70
2023/06/07 09:12:40;;;;;;;5.13;3.50;;;;;;;24.43;47.58;101213.44;5001195;28;20232;-72
2023/06/07 09:15:08;;;;;;;7.57;3.90;;;;;;;24.53;54.32;101226.81;5000840;28;20203;-71
2023/06/07 09:17:53;;;;;;;4.75;3.55;;;;;;;24.68;55.85;101221.28;5002138;28;20243;-71
2023/06/07 09:20:20;;;;;;;5.75;3.53;;;;;;;24.79;45.08;101217.28;4999243;28;20208;-70
2023/06/07 09:22:57;;;;;;;5.80;3.97;;;;;;;25.00;54.20;101225.09;4997598;28;20234;-72
2023/06/07 09:25:24;;;;;;;6.38;3.63;;;;;;;25.11;41.66;101219.53;4998987;28;20707;-70
2023/06/07 09:27:51;;;;;;;7.32;3.83;;;;;;;25.22;41.49;101222.88;5000092;28;20196;-71
2023/06/07 09:30:18;;;;;;;5.30;3.60;;;;;;;25.31;48.99;101221.19;4998423;28;20980;-71
2023/06/07 09:32:44;;;;;;;5.93;3.90;;;;;;;25.35;46.03;101224.63;5000798;28;20237;-71
2023/06/07 09:35:13;;;;;;;5.20;3.70;;;;;;;25.39;51.32;101219.16;4999066;28;20726;-70
2023/06/07 09:37:44;;;;;;;5.43;3.60;;;;;;;25.40;50.73;101215.28;4998764;28;20798;-71
2023/06/07 09:40:15;;;;;;;7.68;3.83;;;;;;;25.41;43.06;101211.38;4999905;28;20212;-71
2023/06/07 09:42:41;;;;;;;5.03;4.07;;;;;;;25.43;46.52;101220.63;5001007;28;20223;-70
2023/06/07 09:45:19;;;;;;;5.20;3.80;;;;;;;25.41;41.73;101214.09;5000378;28;20200;-70
2023/06/07 09:47:48;;;;;;;4.68;3.90;;;;;;;25.42;47.86;101216.41;4998190;28;20215;-72
2023/06/07 09:50:16;;;;;;;6.65;3.80;;;;;;;25.45;44.43;101212.88;4997627;28;20491;-70
2023/06/07 09:52:42;;;;;;;4.93;3.63;;;;;;;25.47;42.87;101209.75;4998605;28;20220;-70
2023/06/07 09:55:26;;;;;;;4.93;4.10;;;;;;;25.52;41.18;101211.97;5003459;28;20607;-70
2023/06/07 09:57:52;;;;;;;6.40;4.40;;;;;;;25.58;43.64;101211.09;5008278;28;20299;-70
2023/06/07 10:00:20;;;;;;;5.95;4.25;;;;;;;25.65;41.57;101200.16;5007448;28;20209;-70
2023/06/07 10:02:47;;;;;;;5.85;4.63;;;;;;;25.75;42.58;101215.44;5007191;28;20751;-70
2023/06/07 10:05:16;;;;;;;5.80;4.00;;;;;;;25.85;47.73;101206.38;5006467;28;20204;-70
2023/06/07 10:07:47;;;;;;;5.55;4.03;;;;;;;25.96;44.04;101206.25;5007853;28;20197;-70
2023/06/07 10:10:17;;;;;;;6.95;4.00;;;;;;;26.03;47.07;101204.16;5008578;28;20572;-70
2023/06/07 10:12:45;;;;;;;6.35;4.65;;;;;;;26.12;44.75;101201.69;5009048;28;20813;-70
2023/06/07 10:15:15;;;;;;;6.00;4.28;;;;;;;26.24;47.61;101208.41;5007947;28;20212;-70
2023/06/07 10:17:48;;;;;;;5.25;4.05;;;;;;;26.35;44.90;101206.25;5008587;28;20212;-70
2023/06/07 10:20:24;;;;;;;6.80;4.45;;;;;;;26.49;42.32;101205.97;5006910;28;20209;-70
2023/06/07 10:22:54;;;;;;;8.73;4.63;;;;;;;26.61;40.70;101203.44;5009221;28;21559;-70
2023/06/07 10:25:24;;;;;;;8.02;4.28;;;;;;;26.73;45.24;101207.44;5007508;28;20208;-70
2023/06/07 10:27:55;;;;;;;5.20;4.05;;;;;;;26.81;40.61;101195.25;5010236;28;20283;-70
2023/06/07 10:30:25;;;;;;;5.53;4.32;;;;;;;26.87;39.61;101193.56;5008400;28;20683;-70
2023/06/07 10:32:53;;;;;;;9.35;5.13;;;;;;;26.94;41.79;101196.16;5009030;28;20230;-70
2023/06/07 10:35:21;;;;;;;5.45;4.40;;;;;;;27.03;48.43;101196.34;5009154;28;20273;-70
2023/06/07 10:37:50;;;;;;;5.78;4.60;;;;;;;27.05;44.93;101192.00;5008788;28;20227;-70
2023/06/07 10:40:17;;;;;;;4.45;3.85;;;;;;;27.08;39.74;101190.41;5008444;28;20209;-70
2023/06/07 10:42:46;;;;;;;7.35;4.57;;;;;;;27.15;41.54;101190.22;5007375;28;20623;-70
2023/06/07 10:45:15;;;;;;;4.80;4.30;;;;;;;27.22;44.65;101193.56;5008523;28;21001;-70
2023/06/07 10:47:44;;;;;;;7.85;4.30;;;;;;;27.33;42.51;101188.66;5008691;28;20193;-70
2023/06/07 10:50:44;;;;;;;5.45;4.88;;;;;;;27.43;43.27;101189.56;5007782;28;20220;-70
2023/06/07 10:53:12;;;;;;;5.63;4.32;;;;;;;27.55;42.55;101188.91;5013238;28;20227;-70
2023/06/07 10:55:38;;;;;;;7.00;4.57;;;;;;;27.63;42.80;101195.66;5012063;28;20206;-70
2023/06/07 10:58:29;;;;;;;5.13;4.50;;;;;;;27.73;46.26;101192.69;5012103;28;20220;-70
2023/06/07 11:00:57;;;;;;;5.25;4.30;;;;;;;27.76;38.88;101183.69;5012128;28;20215;-70
2023/06/07 11:03:41;;;;;;;8.93;4.75;;;;;;;27.85;40.64;101175.72;5012740;28;21234;-70
2023/06/07 11:06:11;;;;;;;6.05;4.32;;;;;;;27.98;42.13;101181.22;5011563;28;20327;-70
2023/06/07 11:08:39;;;;;;;5.20;4.28;;;;;;;28.08;37.25;101185.59;5013042;28;20216;-70
2023/06/07 11:11:53;;;;;;;7.57;4.93;;;;;;;28.19;42.48;101177.91;5011220;28;20215;-70
2023/06/07 11:14:21;;;;;;;6.50;4.70;;;;;;;28.34;45.00;101173.59;5011697;28;20208;-70
2023/06/07 11:16:47;;;;;;;5.95;4.93;;;;;;;28.41;36.74;101176.13;5012851;28;20318;-70
2023/06/07 11:19:16;;;;;;;6.10;4.60;;;;;;;28.46;41.84;101172.88;5026887;28;20208;-70
2023/06/07 11:22:06;;;;;;;9.70;4.88;;;;;;;28.47;40.13;101172.47;5011637;28;20234;-70
2023/06/07 11:24:36;;;;;;;5.30;4.80;;;;;;;28.51;39.97;101177.78;5013667;28;20224;-70
2023/06/07 11:27:03;;;;;;;6.60;4.38;;;;;;;28.60;44.72;101172.47;5014292;28;20644;-70